Darstellungsparameter: Aktuell verwendete Einstellungen:
Skalierung der Graphiken ... ?
xyx+y,   Skalierungsfaktor:      Skalierung: Modus: x, Faktor: 1
Darstellungszeitraum ... ?
Vom - - bis: - -   Zeitraum: 02.07.2021 - 22.07.2021
Min/Max/Avg-Anzeige ... ?
Zeige MMA aktuell
Zeige MMA Monat
Zeige MMA alles
Zeige --A aktuell
Zeige --A Monat
Zeige --A alles
Keine MMA-Anzeige
MMA:
Average (ber die Originaldaten)
MMA-Basis: 02.07.2021 - 22.07.2021
Quicknavigation für Darstellung... ?
Tage:      1T, 2T, 3T, 5T -1T -2T -3T -5T +1T +2T +3T +5T
Wochen: 1W, 2W, 3W -1W -2W -3W +1W +2W +3W
Monate: 1M, 3M, 6M -1M -3M -6M +1M +3M +6M
Jahre:    1J, 3J, 5J, 10J -1J -3J -5J -10J +1J +3J +5J +10J
Nutze für die Darstellung ... ?
Originaldaten oder ...
Mittelwerte Minima Maxima auf...
Stundenbasis Tagesbasis Wochenbasis
Monatsbasis Jahresbasis      Datenbasis: Mittelwerte auf Stundenbasis
Darstellen als:
Statistik (Auto) Statistik J:M      Darstellung:
Zur Graphik,    zurück zur Übersicht aller Sensoren.
 
Tabellarische Datenbersicht: ?
 
Sensor: Nr:Datum:Temp:Abs-Feuchte:Windchill:Wind:
Aussen-T/F 1 02-07-2021 00:00:00 13.90833 C 11.02 g/m*3 13.91 C 0.13333 km/h
2 02-07-2021 01:00:00 13.65 C 10.95 g/m*3 13.65 C 0.4 km/h
3 02-07-2021 02:00:00 13.40833 C 10.84 g/m*3 13.41 C 0 km/h
4 02-07-2021 03:00:00 13.35 C 10.89 g/m*3 13.35 C 0 km/h
5 02-07-2021 04:00:00 13.05 C 10.69 g/m*3 13.05 C 0.53333 km/h
6 02-07-2021 05:00:00 12.40833 C 10.29 g/m*3 12.41 C 1.2 km/h
7 02-07-2021 06:00:00 12.31667 C 10.37 g/m*3 12.32 C 1.33333 km/h
8 02-07-2021 07:00:00 13.20833 C 10.96 g/m*3 13.21 C 6.56667 km/h
9 02-07-2021 08:00:00 13.68333 C 11.08 g/m*3 13.68 C 7.39167 km/h
10 02-07-2021 09:00:00 14.94167 C 11.3 g/m*3 14.94 C 5.225 km/h
11 02-07-2021 10:00:00 16.95833 C 11.4 g/m*3 16.96 C 1.6 km/h
12 02-07-2021 11:00:00 18.28333 C 11.99 g/m*3 18.28 C 3.75 km/h
13 02-07-2021 12:00:00 18.9 C 12.02 g/m*3 18.9 C 6.84167 km/h
14 02-07-2021 13:00:00 19.71667 C 12.72 g/m*3 19.72 C 4.29167 km/h
15 02-07-2021 14:00:00 20.55833 C 12.69 g/m*3 20.56 C 6.71667 km/h
16 02-07-2021 15:00:00 21.48333 C 12.75 g/m*3 21.48 C 6.175 km/h
17 02-07-2021 16:00:00 23.98333 C 12.84 g/m*3 23.98 C 4.40833 km/h
18 02-07-2021 17:00:00 24.73333 C 12.66 g/m*3 24.73 C 5.61667 km/h
19 02-07-2021 18:00:00 25.6 C 12.7 g/m*3 25.6 C 4.40833 km/h
20 02-07-2021 19:00:00 24.38333 C 13.15 g/m*3 24.38 C 1.73333 km/h
21 02-07-2021 20:00:00 23.21667 C 13.91 g/m*3 23.22 C 0.8 km/h
22 02-07-2021 21:00:00 19.45833 C 13 g/m*3 19.46 C 5.075 km/h
23 02-07-2021 22:00:00 17.01667 C 12.23 g/m*3 17.02 C 2.93333 km/h
24 02-07-2021 23:00:00 15.76667 C 11.96 g/m*3 15.77 C 0 km/h
25 03-07-2021 00:00:00 14.825 C 11.61 g/m*3 14.83 C 0 km/h
Sensor: Nr:Datum:Temp:Abs-Feuchte:Windchill:Wind:
Aussen-T/F 26 03-07-2021 01:00:00 14.03333 C 11.23 g/m*3 14.03 C 0 km/h
27 03-07-2021 02:00:00 13.70833 C 11.15 g/m*3 13.71 C 0 km/h
28 03-07-2021 03:00:00 13.33333 C 10.96 g/m*3 13.33 C 0 km/h
29 03-07-2021 04:00:00 12.66667 C 10.55 g/m*3 12.67 C 0 km/h
30 03-07-2021 05:00:00 12.36667 C 10.37 g/m*3 12.37 C 0 km/h
31 03-07-2021 06:00:00 12.25 C 10.39 g/m*3 12.25 C 0 km/h
32 03-07-2021 07:00:00 12.63333 C 10.66 g/m*3 12.63 C 0 km/h
33 03-07-2021 08:00:00 13.625 C 11.43 g/m*3 13.63 C 1.46667 km/h
34 03-07-2021 09:00:00 15.06667 C 12.49 g/m*3 15.07 C 0 km/h
35 03-07-2021 10:00:00 17.4 C 14.21 g/m*3 17.4 C 0 km/h
36 03-07-2021 11:00:00 20.575 C 15.06 g/m*3 20.58 C 2.26667 km/h
37 03-07-2021 12:00:00 22.33333 C 13.65 g/m*3 22.33 C 4.14167 km/h
38 03-07-2021 13:00:00 23.80833 C 11.78 g/m*3 23.81 C 4.95833 km/h
39 03-07-2021 14:00:00 25.35833 C 13.45 g/m*3 25.36 C 4.275 km/h
40 03-07-2021 15:00:00 25.43333 C 15.35 g/m*3 25.43 C 2.15 km/h
41 03-07-2021 16:00:00 24.23333 C 16.57 g/m*3 24.23 C 1.46667 km/h
42 03-07-2021 17:00:00 25.63333 C 17.43 g/m*3 25.63 C 0.26667 km/h
43 03-07-2021 18:00:00 25.81667 C 17.19 g/m*3 25.82 C 1.06667 km/h
44 03-07-2021 19:00:00 23.65833 C 14.35 g/m*3 23.66 C 9.41667 km/h
45 03-07-2021 20:00:00 21.66667 C 14.58 g/m*3 21.67 C 0.80833 km/h
46 03-07-2021 21:00:00 19.525 C 14.26 g/m*3 19.52 C 5.2 km/h
47 03-07-2021 22:00:00 18.91667 C 14.01 g/m*3 18.92 C 3.86667 km/h
48 03-07-2021 23:00:00 18.74167 C 14.34 g/m*3 18.74 C 1.33333 km/h
49 04-07-2021 00:00:00 17.85833 C 14.05 g/m*3 17.86 C 3.46667 km/h
50 04-07-2021 01:00:00 17.48333 C 13.86 g/m*3 17.48 C 0.8 km/h
Sensor: Nr:Datum:Temp:Abs-Feuchte:Windchill:Wind:
Aussen-T/F 51 04-07-2021 02:00:00 17 C 13.59 g/m*3 17 C 0.53333 km/h
52 04-07-2021 03:00:00 16.70833 C 13.46 g/m*3 16.71 C 0.66667 km/h
53 04-07-2021 04:00:00 16.66667 C 13.47 g/m*3 16.67 C 0 km/h
54 04-07-2021 05:00:00 16.575 C 13.53 g/m*3 16.58 C 0 km/h
55 04-07-2021 06:00:00 16.65833 C 13.61 g/m*3 16.66 C 0 km/h
56 04-07-2021 07:00:00 17.1 C 13.97 g/m*3 17.1 C 0 km/h
57 04-07-2021 08:00:00 17.475 C 14.29 g/m*3 17.48 C 0 km/h
58 04-07-2021 09:00:00 19.10833 C 15.16 g/m*3 19.11 C 4.28333 km/h
59 04-07-2021 10:00:00 21.46667 C 15.4 g/m*3 21.47 C 3.2 km/h
60 04-07-2021 11:00:00 23.08333 C 16.09 g/m*3 23.08 C 1.6 km/h
61 04-07-2021 12:00:00 19.275 C 14.78 g/m*3 19.27 C 6.59167 km/h
62 04-07-2021 13:00:00 18.20833 C 14.71 g/m*3 18.21 C 1.73333 km/h
63 04-07-2021 14:00:00 18.81667 C 15.25 g/m*3 18.82 C 1.33333 km/h
64 04-07-2021 15:00:00 18.425 C 14.98 g/m*3 18.43 C 2.13333 km/h
65 04-07-2021 16:00:00 19.66667 C 16.17 g/m*3 19.67 C 4.00833 km/h
66 04-07-2021 17:00:00 18.91667 C 14.72 g/m*3 18.92 C 7.64167 km/h
67 04-07-2021 18:00:00 17.3 C 13.64 g/m*3 17.3 C 4.675 km/h
68 04-07-2021 19:00:00 18.15 C 14.04 g/m*3 18.15 C 1.73333 km/h
69 04-07-2021 20:00:00 18.44167 C 13.97 g/m*3 18.44 C 0.4 km/h
70 04-07-2021 21:00:00 17.65833 C 13.62 g/m*3 17.66 C 2.4 km/h
71 04-07-2021 22:00:00 15.975 C 12.66 g/m*3 15.98 C 2.53333 km/h
72 04-07-2021 23:00:00 15.05833 C 12.16 g/m*3 15.06 C 0.4 km/h
73 05-07-2021 00:00:00 14.375 C 11.73 g/m*3 14.38 C 0 km/h
74 05-07-2021 01:00:00 13.88333 C 11.5 g/m*3 13.88 C 0 km/h
75 05-07-2021 02:00:00 13.55 C 11.26 g/m*3 13.55 C 0 km/h
Sensor: Nr:Datum:Temp:Abs-Feuchte:Windchill:Wind:
Aussen-T/F 76 05-07-2021 03:00:00 13.36667 C 11.18 g/m*3 13.37 C 0 km/h
77 05-07-2021 04:00:00 13.875 C 11.61 g/m*3 13.88 C 0 km/h
78 05-07-2021 05:00:00 13.91667 C 11.64 g/m*3 13.92 C 0 km/h
79 05-07-2021 06:00:00 14.275 C 11.9 g/m*3 14.28 C 0 km/h
80 05-07-2021 07:00:00 15.06667 C 12.54 g/m*3 15.07 C 0.13333 km/h
81 05-07-2021 08:00:00 16.13333 C 13.45 g/m*3 16.13 C 0.26667 km/h
82 05-07-2021 09:00:00 16.81667 C 13.89 g/m*3 16.82 C 3.6 km/h
83 05-07-2021 10:00:00 17.88333 C 13.65 g/m*3 17.88 C 7.525 km/h
84 05-07-2021 11:00:00 19.08333 C 13.54 g/m*3 19.08 C 6.16667 km/h
85 05-07-2021 12:00:00 19.575 C 13.56 g/m*3 19.58 C 2.26667 km/h
86 05-07-2021 13:00:00 19.39167 C 14.26 g/m*3 19.39 C 3.21667 km/h
87 05-07-2021 14:00:00 18.60833 C 14.23 g/m*3 18.61 C 2.13333 km/h
88 05-07-2021 15:00:00 18.95 C 14.92 g/m*3 18.95 C 2.8 km/h
89 05-07-2021 16:00:00 20.09167 C 15.58 g/m*3 20.09 C 5.9 km/h
90 05-07-2021 17:00:00 22.15 C 16.49 g/m*3 22.15 C 3.075 km/h
91 05-07-2021 18:00:00 20.475 C 15.69 g/m*3 20.48 C 3.2 km/h
92 05-07-2021 19:00:00 20.06667 C 15.95 g/m*3 20.07 C 0.4 km/h
93 05-07-2021 20:00:00 19.88333 C 15.85 g/m*3 19.88 C 1.86667 km/h
94 05-07-2021 21:00:00 18.9 C 15.13 g/m*3 18.9 C 3.06667 km/h
95 05-07-2021 22:00:00 18.3 C 14.7 g/m*3 18.3 C 1.86667 km/h
96 05-07-2021 23:00:00 17.80833 C 14.4 g/m*3 17.81 C 2.13333 km/h
97 06-07-2021 00:00:00 17.125 C 13.86 g/m*3 17.13 C 1.2 km/h
98 06-07-2021 01:00:00 16.45833 C 13.39 g/m*3 16.46 C 2.66667 km/h
99 06-07-2021 02:00:00 15.78333 C 12.91 g/m*3 15.78 C 2.8 km/h
100 06-07-2021 03:00:00 16.35833 C 13.49 g/m*3 16.36 C 2.80833 km/h
Sensor: Nr:Datum:Temp:Abs-Feuchte:Windchill:Wind:
Aussen-T/F 101 06-07-2021 04:00:00 16.43333 C 13.57 g/m*3 16.43 C 2.93333 km/h
102 06-07-2021 05:00:00 15.96667 C 13.17 g/m*3 15.97 C 1.46667 km/h
103 06-07-2021 06:00:00 16.1 C 13.3 g/m*3 16.1 C 0 km/h
104 06-07-2021 07:00:00 16.55833 C 13.67 g/m*3 16.56 C 0 km/h
105 06-07-2021 08:00:00 16.89167 C 13.94 g/m*3 16.89 C 0.8 km/h
106 06-07-2021 09:00:00 17.2 C 14.2 g/m*3 17.2 C 2.41667 km/h
107 06-07-2021 10:00:00 17.825 C 14.87 g/m*3 17.83 C 5.35833 km/h
108 06-07-2021 11:00:00 18.725 C 15.61 g/m*3 18.73 C 2.13333 km/h
109 06-07-2021 12:00:00 19.01667 C 15.73 g/m*3 19.02 C 5.90833 km/h
110 06-07-2021 13:00:00 19.58333 C 15.11 g/m*3 19.58 C 11.28333 km/h
111 06-07-2021 14:00:00 20.8 C 14.8 g/m*3 20.8 C 9.55 km/h
112 06-07-2021 15:00:00 20.15833 C 14.29 g/m*3 20.16 C 6.425 km/h
113 06-07-2021 16:00:00 19.475 C 13.84 g/m*3 19.48 C 3.34167 km/h
114 06-07-2021 17:00:00 19.76667 C 14.19 g/m*3 19.77 C 2.80833 km/h
115 06-07-2021 18:00:00 19.8 C 14.5 g/m*3 19.8 C 2.13333 km/h
116 06-07-2021 19:00:00 18.83333 C 14.24 g/m*3 18.83 C 2.4 km/h
117 06-07-2021 20:00:00 17.93333 C 13.85 g/m*3 17.93 C 2.66667 km/h
118 06-07-2021 21:00:00 17.25 C 13.49 g/m*3 17.25 C 4.675 km/h
119 06-07-2021 22:00:00 16.44167 C 12.88 g/m*3 16.44 C 3.06667 km/h
120 06-07-2021 23:00:00 15.89167 C 12.58 g/m*3 15.89 C 4 km/h
121 07-07-2021 00:00:00 15.475 C 12.22 g/m*3 15.48 C 1.33333 km/h
122 07-07-2021 01:00:00 14.54167 C 11.68 g/m*3 14.54 C 1.2 km/h
123 07-07-2021 02:00:00 14.21667 C 11.61 g/m*3 14.22 C 0 km/h
124 07-07-2021 03:00:00 14.09167 C 11.62 g/m*3 14.09 C 0 km/h
125 07-07-2021 04:00:00 13.88333 C 11.5 g/m*3 13.88 C 0 km/h
Sensor: Nr:Datum:Temp:Abs-Feuchte:Windchill:Wind:
Aussen-T/F 126 07-07-2021 05:00:00 13.725 C 11.39 g/m*3 13.73 C 0 km/h
127 07-07-2021 06:00:00 13.7 C 11.43 g/m*3 13.7 C 0 km/h
128 07-07-2021 07:00:00 14.4 C 11.99 g/m*3 14.4 C 0 km/h
129 07-07-2021 08:00:00 15.18333 C 12.58 g/m*3 15.18 C 0 km/h
130 07-07-2021 09:00:00 15.875 C 13.08 g/m*3 15.88 C 1.46667 km/h
131 07-07-2021 10:00:00 18.64167 C 13.92 g/m*3 18.64 C 3.46667 km/h
132 07-07-2021 11:00:00 21.03333 C 13.84 g/m*3 21.03 C 6.84167 km/h
133 07-07-2021 12:00:00 21.80833 C 13.24 g/m*3 21.81 C 9.15 km/h
134 07-07-2021 13:00:00 21.975 C 13.53 g/m*3 21.98 C 5.36667 km/h
135 07-07-2021 14:00:00 22.825 C 13.77 g/m*3 22.83 C 5.21667 km/h
136 07-07-2021 15:00:00 23.1 C 14.87 g/m*3 23.1 C 2.95 km/h
137 07-07-2021 16:00:00 24.48333 C 15.02 g/m*3 24.48 C 4.55 km/h
138 07-07-2021 17:00:00 24.275 C 16 g/m*3 24.28 C 2.93333 km/h
139 07-07-2021 18:00:00 21.74167 C 15.38 g/m*3 21.74 C 4.4 km/h
140 07-07-2021 19:00:00 21.64167 C 15.45 g/m*3 21.64 C 3.33333 km/h
141 07-07-2021 20:00:00 20.35 C 14.52 g/m*3 20.35 C 5.2 km/h
142 07-07-2021 21:00:00 18.61667 C 13.46 g/m*3 18.62 C 4.14167 km/h
143 07-07-2021 22:00:00 17.01667 C 12.71 g/m*3 17.02 C 1.86667 km/h
144 07-07-2021 23:00:00 15.71667 C 12.21 g/m*3 15.72 C 0 km/h
145 08-07-2021 00:00:00 14.825 C 11.77 g/m*3 14.83 C 0 km/h
146 08-07-2021 01:00:00 14.20833 C 11.49 g/m*3 14.21 C 0 km/h
147 08-07-2021 02:00:00 14.14167 C 11.56 g/m*3 14.14 C 0 km/h
148 08-07-2021 03:00:00 13.73333 C 11.27 g/m*3 13.73 C 0.13333 km/h
149 08-07-2021 04:00:00 13.6 C 11.28 g/m*3 13.6 C 0.53333 km/h
150 08-07-2021 05:00:00 13.60833 C 11.3 g/m*3 13.61 C 0 km/h
Sensor: Nr:Datum:Temp:Abs-Feuchte:Windchill:Wind:
Aussen-T/F 151 08-07-2021 06:00:00 13.775 C 11.48 g/m*3 13.78 C 0.13333 km/h
152 08-07-2021 07:00:00 14.29167 C 11.91 g/m*3 14.29 C 0.26667 km/h
153 08-07-2021 08:00:00 15.24167 C 12.59 g/m*3 15.24 C 0.4 km/h
154 08-07-2021 09:00:00 16.825 C 13.67 g/m*3 16.83 C 0.53333 km/h
155 08-07-2021 10:00:00 19.30833 C 14.74 g/m*3 19.31 C 0.4 km/h
156 08-07-2021 11:00:00 22.24167 C 16.02 g/m*3 22.24 C 0 km/h
157 08-07-2021 12:00:00 23.50833 C 16.01 g/m*3 23.51 C 1.06667 km/h
158 08-07-2021 13:00:00 21.8 C 14.9 g/m*3 21.8 C 8.03333 km/h
159 08-07-2021 14:00:00 18.375 C 13.61 g/m*3 18.38 C 5.35833 km/h
160 08-07-2021 15:00:00 17.38333 C 13.67 g/m*3 17.38 C 1.2 km/h
161 08-07-2021 16:00:00 16.775 C 13.45 g/m*3 16.77 C 2.4 km/h
162 08-07-2021 17:00:00 16.90833 C 13.74 g/m*3 16.91 C 3.46667 km/h
163 08-07-2021 18:00:00 17.475 C 14.29 g/m*3 17.48 C 0 km/h
164 08-07-2021 19:00:00 17.51667 C 14.29 g/m*3 17.52 C 0.4 km/h
165 08-07-2021 20:00:00 17.16667 C 13.94 g/m*3 17.17 C 1.33333 km/h
166 08-07-2021 21:00:00 16.18333 C 13.1 g/m*3 16.18 C 4.675 km/h
167 08-07-2021 22:00:00 15.76667 C 12.9 g/m*3 15.77 C 3.86667 km/h
168 08-07-2021 23:00:00 15.7 C 12.89 g/m*3 15.7 C 0.93333 km/h
169 09-07-2021 00:00:00 15.69167 C 12.97 g/m*3 15.69 C 0.66667 km/h
170 09-07-2021 01:00:00 15.60833 C 12.91 g/m*3 15.61 C 0.8 km/h
171 09-07-2021 02:00:00 15.55 C 12.86 g/m*3 15.55 C 0.13333 km/h
172 09-07-2021 03:00:00 15.39167 C 12.74 g/m*3 15.39 C 0.4 km/h
173 09-07-2021 04:00:00 15.3 C 12.67 g/m*3 15.3 C 1.86667 km/h
174 09-07-2021 05:00:00 15.3 C 12.67 g/m*3 15.3 C 0 km/h
175 09-07-2021 06:00:00 15.575 C 12.92 g/m*3 15.58 C 0.13333 km/h
Sensor: Nr:Datum:Temp:Abs-Feuchte:Windchill:Wind:
Aussen-T/F 176 09-07-2021 07:00:00 15.90833 C 13.19 g/m*3 15.91 C 1.2 km/h
177 09-07-2021 08:00:00 16.24167 C 13.49 g/m*3 16.24 C 0.26667 km/h
178 09-07-2021 09:00:00 16.68333 C 13.91 g/m*3 16.68 C 0.53333 km/h
179 09-07-2021 10:00:00 17.26667 C 14.32 g/m*3 17.27 C 6.96667 km/h
180 09-07-2021 11:00:00 18.40833 C 14.52 g/m*3 18.41 C 6.575 km/h
181 09-07-2021 12:00:00 18.76667 C 13.86 g/m*3 18.77 C 10.88333 km/h
182 09-07-2021 13:00:00 18.48333 C 14.29 g/m*3 18.48 C 3.60833 km/h
183 09-07-2021 14:00:00 19.23333 C 14.17 g/m*3 19.23 C 5.74167 km/h
184 09-07-2021 15:00:00 20.66667 C 14.51 g/m*3 20.67 C 7.93333 km/h
185 09-07-2021 16:00:00 22.15 C 14.41 g/m*3 22.15 C 8.73333 km/h
186 09-07-2021 17:00:00 22.83333 C 13.88 g/m*3 22.83 C 9.14167 km/h
187 09-07-2021 18:00:00 22.16667 C 13.15 g/m*3 22.17 C 3.73333 km/h
188 09-07-2021 19:00:00 20.675 C 14.55 g/m*3 20.68 C 2.68333 km/h
189 09-07-2021 20:00:00 19.24167 C 14.56 g/m*3 19.24 C 0.66667 km/h
190 09-07-2021 21:00:00 18.04167 C 14 g/m*3 18.04 C 1.33333 km/h
191 09-07-2021 22:00:00 16.725 C 13.15 g/m*3 16.73 C 1.2 km/h
192 09-07-2021 23:00:00 15.84167 C 12.71 g/m*3 15.84 C 0 km/h
193 10-07-2021 00:00:00 15.30833 C 12.38 g/m*3 15.31 C 0 km/h
194 10-07-2021 01:00:00 15.03333 C 12.21 g/m*3 15.03 C 0 km/h
195 10-07-2021 02:00:00 14.48333 C 11.9 g/m*3 14.48 C 0 km/h
196 10-07-2021 03:00:00 14.23333 C 11.75 g/m*3 14.23 C 0 km/h
197 10-07-2021 04:00:00 14.14167 C 11.73 g/m*3 14.14 C 0.26667 km/h
198 10-07-2021 05:00:00 14.375 C 11.97 g/m*3 14.38 C 0.26667 km/h
199 10-07-2021 06:00:00 14.36667 C 11.97 g/m*3 14.37 C 0.26667 km/h
200 10-07-2021 07:00:00 14.46667 C 12.04 g/m*3 14.47 C 0.93333 km/h
Sensor: Nr:Datum:Temp:Abs-Feuchte:Windchill:Wind:
Aussen-T/F 201 10-07-2021 08:00:00 14.88333 C 12.35 g/m*3 14.88 C 0.66667 km/h
202 10-07-2021 09:00:00 16.14167 C 13.28 g/m*3 16.14 C 1.46667 km/h
203 10-07-2021 10:00:00 18.26667 C 14.54 g/m*3 18.27 C 0.13333 km/h
204 10-07-2021 11:00:00 20.45833 C 15.13 g/m*3 20.46 C 1.33333 km/h
205 10-07-2021 12:00:00 22.00833 C 15.15 g/m*3 22.01 C 6.43333 km/h
206 10-07-2021 13:00:00 22.74167 C 15.44 g/m*3 22.74 C 3.6 km/h
207 10-07-2021 14:00:00 23.40833 C 13.81 g/m*3 23.41 C 8.33333 km/h
208 10-07-2021 15:00:00 24.56667 C 14.06 g/m*3 24.57 C 5.89167 km/h
209 10-07-2021 16:00:00 25.075 C 14.78 g/m*3 25.08 C 5.9 km/h
210 10-07-2021 17:00:00 23.6 C 16 g/m*3 23.6 C 2.8 km/h
211 10-07-2021 18:00:00 21.70833 C 15.9 g/m*3 21.71 C 1.73333 km/h
212 10-07-2021 19:00:00 22.85833 C 16.26 g/m*3 22.86 C 2.66667 km/h
213 10-07-2021 20:00:00 22.175 C 15.63 g/m*3 22.18 C 1.06667 km/h
214 10-07-2021 21:00:00 19.58333 C 14.34 g/m*3 19.58 C 4.55 km/h
215 10-07-2021 22:00:00 17.59167 C 13.54 g/m*3 17.59 C 6.30833 km/h
216 10-07-2021 23:00:00 16.59167 C 13.31 g/m*3 16.59 C 1.20833 km/h
217 11-07-2021 00:00:00 16.41667 C 13.28 g/m*3 16.42 C 0 km/h
218 11-07-2021 01:00:00 16.16667 C 13.11 g/m*3 16.17 C 1.46667 km/h
219 11-07-2021 02:00:00 15.8 C 12.92 g/m*3 15.8 C 1.2 km/h
220 11-07-2021 03:00:00 15.49167 C 12.68 g/m*3 15.49 C 0 km/h
221 11-07-2021 04:00:00 15.59167 C 12.79 g/m*3 15.59 C 0.13333 km/h
222 11-07-2021 05:00:00 15.60833 C 12.87 g/m*3 15.61 C 1.06667 km/h
223 11-07-2021 06:00:00 15.65 C 12.94 g/m*3 15.65 C 0 km/h
224 11-07-2021 07:00:00 15.96667 C 13.19 g/m*3 15.97 C 0 km/h
225 11-07-2021 08:00:00 16.175 C 13.36 g/m*3 16.18 C 0 km/h
Sensor: Nr:Datum:Temp:Abs-Feuchte:Windchill:Wind:
Aussen-T/F 226 11-07-2021 09:00:00 16.55 C 13.66 g/m*3 16.55 C 1.06667 km/h
227 11-07-2021 10:00:00 16.89167 C 13.92 g/m*3 16.89 C 1.6 km/h
228 11-07-2021 11:00:00 17.51667 C 14.18 g/m*3 17.52 C 2.13333 km/h
229 11-07-2021 12:00:00 18 C 14.35 g/m*3 18 C 0.4 km/h
230 11-07-2021 13:00:00 19.175 C 14.16 g/m*3 19.18 C 4.425 km/h
231 11-07-2021 14:00:00 20.7 C 14.3 g/m*3 20.7 C 6.03333 km/h
232 11-07-2021 15:00:00 21.43333 C 14.62 g/m*3 21.43 C 2.13333 km/h
233 11-07-2021 16:00:00 22.01667 C 14.72 g/m*3 22.02 C 3.33333 km/h
234 11-07-2021 17:00:00 22.9 C 16.25 g/m*3 22.9 C 1.33333 km/h
235 11-07-2021 18:00:00 22.825 C 16.31 g/m*3 22.83 C 0.4 km/h
236 11-07-2021 19:00:00 22.73333 C 16.19 g/m*3 22.73 C 1.46667 km/h
237 11-07-2021 20:00:00 21.85833 C 15.83 g/m*3 21.86 C 1.86667 km/h
238 11-07-2021 21:00:00 18.85 C 13.76 g/m*3 18.85 C 6.84167 km/h
239 11-07-2021 22:00:00 16.93333 C 12.96 g/m*3 16.93 C 0.8 km/h
240 11-07-2021 23:00:00 15.70833 C 12.42 g/m*3 15.71 C 0 km/h
241 12-07-2021 00:00:00 14.95 C 12.03 g/m*3 14.95 C 0 km/h
242 12-07-2021 01:00:00 14.425 C 11.76 g/m*3 14.43 C 0 km/h
243 12-07-2021 02:00:00 13.875 C 11.37 g/m*3 13.88 C 0 km/h
244 12-07-2021 03:00:00 13.41667 C 11.13 g/m*3 13.42 C 0 km/h
245 12-07-2021 04:00:00 13.48333 C 11.27 g/m*3 13.48 C 0.13333 km/h
246 12-07-2021 05:00:00 14.2 C 11.84 g/m*3 14.2 C 0.8 km/h
247 12-07-2021 06:00:00 14.15 C 11.81 g/m*3 14.15 C 1.33333 km/h
248 12-07-2021 07:00:00 14.26667 C 11.89 g/m*3 14.27 C 0.13333 km/h
249 12-07-2021 08:00:00 14.8 C 12.3 g/m*3 14.8 C 0 km/h
250 12-07-2021 09:00:00 15.95833 C 13.28 g/m*3 15.96 C 0 km/h
Sensor: Nr:Datum:Temp:Abs-Feuchte:Windchill:Wind:
Aussen-T/F 251 12-07-2021 10:00:00 17.98333 C 14.79 g/m*3 17.98 C 4.15833 km/h
252 12-07-2021 11:00:00 20.96667 C 14.95 g/m*3 20.97 C 8.33333 km/h
253 12-07-2021 12:00:00 22.15 C 15.04 g/m*3 22.15 C 7.66667 km/h
254 12-07-2021 13:00:00 23.3 C 15.8 g/m*3 23.3 C 5.09167 km/h
255 12-07-2021 14:00:00 23.7 C 15.94 g/m*3 23.7 C 2 km/h
256 12-07-2021 15:00:00 22.93333 C 17.22 g/m*3 22.93 C 0 km/h
257 12-07-2021 16:00:00 22.95 C 16.89 g/m*3 22.95 C 1.73333 km/h
258 12-07-2021 17:00:00 23.775 C 16.97 g/m*3 23.78 C 1.60833 km/h
259 12-07-2021 18:00:00 23.40833 C 16.97 g/m*3 23.41 C 1.475 km/h
260 12-07-2021 19:00:00 21.71667 C 16.47 g/m*3 21.72 C 0.8 km/h
261 12-07-2021 20:00:00 21.05 C 15.95 g/m*3 21.05 C 2.26667 km/h
262 12-07-2021 21:00:00 19.94167 C 15.26 g/m*3 19.94 C 2.26667 km/h
263 12-07-2021 22:00:00 19.49167 C 15.08 g/m*3 19.49 C 0 km/h
264 12-07-2021 23:00:00 19.275 C 15.13 g/m*3 19.27 C 0 km/h
265 13-07-2021 00:00:00 18.975 C 15.08 g/m*3 18.98 C 0 km/h
266 13-07-2021 01:00:00 18.59167 C 14.81 g/m*3 18.59 C 0 km/h
267 13-07-2021 02:00:00 18.175 C 14.59 g/m*3 18.18 C 0 km/h
268 13-07-2021 03:00:00 18.03333 C 14.57 g/m*3 18.03 C 0.26667 km/h
269 13-07-2021 04:00:00 17.86667 C 14.48 g/m*3 17.87 C 2.66667 km/h
270 13-07-2021 05:00:00 17.68333 C 14.47 g/m*3 17.68 C 0.93333 km/h
271 13-07-2021 06:00:00 17.58333 C 14.38 g/m*3 17.58 C 0.13333 km/h
272 13-07-2021 07:00:00 17.525 C 14.35 g/m*3 17.52 C 1.2 km/h
273 13-07-2021 08:00:00 17.69167 C 14.6 g/m*3 17.69 C 0.93333 km/h
274 13-07-2021 09:00:00 18.03333 C 14.93 g/m*3 18.03 C 0.4 km/h
275 13-07-2021 10:00:00 18.54167 C 15.29 g/m*3 18.54 C 1.2 km/h
Sensor: Nr:Datum:Temp:Abs-Feuchte:Windchill:Wind:
Aussen-T/F 276 13-07-2021 11:00:00 18.75 C 15.4 g/m*3 18.75 C 1.2 km/h
277 13-07-2021 12:00:00 19.2 C 15.66 g/m*3 19.2 C 0.93333 km/h
278 13-07-2021 13:00:00 19.84167 C 15.95 g/m*3 19.84 C 0.93333 km/h
279 13-07-2021 14:00:00 20.6 C 16.18 g/m*3 20.6 C 0.53333 km/h
280 13-07-2021 15:00:00 21.6 C 16.56 g/m*3 21.6 C 0.66667 km/h
281 13-07-2021 16:00:00 21.675 C 16.62 g/m*3 21.68 C 1.86667 km/h
282 13-07-2021 17:00:00 21.325 C 16.54 g/m*3 21.33 C 2.13333 km/h
283 13-07-2021 18:00:00 20.85 C 16.54 g/m*3 20.85 C 3.225 km/h
284 13-07-2021 19:00:00 18.325 C 14.72 g/m*3 18.33 C 4.28333 km/h
285 13-07-2021 20:00:00 17.99167 C 14.58 g/m*3 17.99 C 1.33333 km/h
286 13-07-2021 21:00:00 17.48333 C 14.22 g/m*3 17.48 C 2.26667 km/h
287 13-07-2021 22:00:00 17.00833 C 13.89 g/m*3 17.01 C 3.74167 km/h
288 13-07-2021 23:00:00 16.73333 C 13.67 g/m*3 16.73 C 2.53333 km/h
289 14-07-2021 00:00:00 16.40833 C 13.41 g/m*3 16.41 C 2.4 km/h
290 14-07-2021 01:00:00 16.2 C 13.24 g/m*3 16.2 C 2.13333 km/h
291 14-07-2021 02:00:00 16.175 C 13.25 g/m*3 16.18 C 2.275 km/h
292 14-07-2021 03:00:00 16.26667 C 13.43 g/m*3 16.27 C 1.46667 km/h
293 14-07-2021 04:00:00 16.225 C 13.4 g/m*3 16.23 C 0.26667 km/h
294 14-07-2021 05:00:00 16.25833 C 13.42 g/m*3 16.26 C 0.13333 km/h
295 14-07-2021 06:00:00 16.31667 C 13.47 g/m*3 16.32 C 2.68333 km/h
296 14-07-2021 07:00:00 16.53333 C 13.65 g/m*3 16.53 C 2.275 km/h
297 14-07-2021 08:00:00 17.11667 C 13.93 g/m*3 17.12 C 6.70833 km/h
298 14-07-2021 09:00:00 17.925 C 14.14 g/m*3 17.93 C 8.2 km/h
299 14-07-2021 10:00:00 18.125 C 13.99 g/m*3 18.13 C 10.35 km/h
300 14-07-2021 11:00:00 17.55 C 13.93 g/m*3 17.55 C 7.125 km/h
Sensor: Nr:Datum:Temp:Abs-Feuchte:Windchill:Wind:
Aussen-T/F 301 14-07-2021 12:00:00 17.34167 C 14.03 g/m*3 17.34 C 2.26667 km/h
302 14-07-2021 13:00:00 17.58333 C 14.35 g/m*3 17.58 C 0.66667 km/h
303 14-07-2021 14:00:00 17.875 C 14.64 g/m*3 17.88 C 0.4 km/h
304 14-07-2021 15:00:00 17.88333 C 14.61 g/m*3 17.88 C 0.26667 km/h
305 14-07-2021 16:00:00 17.61667 C 14.41 g/m*3 17.62 C 0 km/h
306 14-07-2021 17:00:00 17.36667 C 14.22 g/m*3 17.37 C 1.46667 km/h
307 14-07-2021 18:00:00 17.225 C 14.08 g/m*3 17.23 C 4.95 km/h
308 14-07-2021 19:00:00 17.1 C 14.12 g/m*3 17.1 C 2 km/h
309 14-07-2021 20:00:00 16.91667 C 13.97 g/m*3 16.92 C 2.53333 km/h
310 14-07-2021 21:00:00 16.66667 C 13.76 g/m*3 16.67 C 4.01667 km/h
311 14-07-2021 22:00:00 16.3 C 13.46 g/m*3 16.3 C 3.21667 km/h
312 14-07-2021 23:00:00 15.45 C 12.76 g/m*3 15.45 C 0.53333 km/h
313 15-07-2021 00:00:00 15.05 C 12.48 g/m*3 15.05 C 0 km/h
314 15-07-2021 01:00:00 15.425 C 12.76 g/m*3 15.43 C 0 km/h
315 15-07-2021 02:00:00 15.45 C 12.78 g/m*3 15.45 C 0 km/h
316 15-07-2021 03:00:00 15.3 C 12.73 g/m*3 15.3 C 0 km/h
317 15-07-2021 04:00:00 15.43333 C 12.9 g/m*3 15.43 C 0 km/h
318 15-07-2021 05:00:00 15.74167 C 13.15 g/m*3 15.74 C 0 km/h
319 15-07-2021 06:00:00 15.975 C 13.33 g/m*3 15.98 C 0 km/h
320 15-07-2021 07:00:00 16.35 C 13.64 g/m*3 16.35 C 0 km/h
321 15-07-2021 08:00:00 16.75 C 13.97 g/m*3 16.75 C 0.13333 km/h
322 15-07-2021 09:00:00 17.4 C 14.52 g/m*3 17.4 C 0 km/h
323 15-07-2021 10:00:00 17.84167 C 14.85 g/m*3 17.84 C 0 km/h
324 15-07-2021 11:00:00 18.4 C 15.11 g/m*3 18.4 C 0.13333 km/h
325 15-07-2021 12:00:00 19.40833 C 15.07 g/m*3 19.41 C 2.94167 km/h
Sensor: Nr:Datum:Temp:Abs-Feuchte:Windchill:Wind:
Aussen-T/F 326 15-07-2021 13:00:00 20.68333 C 14.66 g/m*3 20.68 C 5.88333 km/h
327 15-07-2021 14:00:00 21.56667 C 14.72 g/m*3 21.57 C 5.75833 km/h
328 15-07-2021 15:00:00 22.30833 C 14.57 g/m*3 22.31 C 9.14167 km/h
329 15-07-2021 16:00:00 23.85833 C 15.14 g/m*3 23.86 C 5.90833 km/h
330 15-07-2021 17:00:00 25.125 C 15.05 g/m*3 25.13 C 5.20833 km/h
331 15-07-2021 18:00:00 25.06667 C 14.6 g/m*3 25.07 C 7.93333 km/h
332 15-07-2021 19:00:00 22.90833 C 14.94 g/m*3 22.91 C 7.65 km/h
333 15-07-2021 20:00:00 21.775 C 15.33 g/m*3 21.78 C 2.26667 km/h
334 15-07-2021 21:00:00 20.24167 C 15.25 g/m*3 20.24 C 0.93333 km/h
335 15-07-2021 22:00:00 19.56667 C 15.43 g/m*3 19.57 C 1.2 km/h
336 15-07-2021 23:00:00 19.34167 C 15.53 g/m*3 19.34 C 0.8 km/h
337 16-07-2021 00:00:00 19.3 C 15.59 g/m*3 19.3 C 1.06667 km/h
338 16-07-2021 01:00:00 19.21667 C 15.52 g/m*3 19.22 C 1.86667 km/h
339 16-07-2021 02:00:00 19.18333 C 15.42 g/m*3 19.18 C 5.75833 km/h
340 16-07-2021 03:00:00 19.29167 C 15.42 g/m*3 19.29 C 3.74167 km/h
341 16-07-2021 04:00:00 19.125 C 15.27 g/m*3 19.13 C 4.41667 km/h
342 16-07-2021 05:00:00 18.825 C 15 g/m*3 18.83 C 3.88333 km/h
343 16-07-2021 06:00:00 18.68333 C 14.87 g/m*3 18.68 C 4.825 km/h
344 16-07-2021 07:00:00 18.225 C 14.48 g/m*3 18.23 C 8.05 km/h
345 16-07-2021 08:00:00 17.80833 C 14.12 g/m*3 17.81 C 5.5 km/h
346 16-07-2021 09:00:00 17.76667 C 14.02 g/m*3 17.77 C 5.075 km/h
347 16-07-2021 10:00:00 17.98333 C 13.89 g/m*3 17.98 C 6.30833 km/h
348 16-07-2021 11:00:00 18.025 C 13.83 g/m*3 18.02 C 8.60833 km/h
349 16-07-2021 12:00:00 17.61667 C 13.62 g/m*3 17.62 C 7.4 km/h
350 16-07-2021 13:00:00 17.775 C 13.61 g/m*3 17.77 C 7.11667 km/h
Sensor: Nr:Datum:Temp:Abs-Feuchte:Windchill:Wind:
Aussen-T/F 351 16-07-2021 14:00:00 18.13333 C 13.7 g/m*3 18.13 C 7.38333 km/h
352 16-07-2021 15:00:00 18.90833 C 13.75 g/m*3 18.91 C 9.275 km/h
353 16-07-2021 16:00:00 18.85 C 13.57 g/m*3 18.85 C 8.88333 km/h
354 16-07-2021 17:00:00 18.94167 C 13.45 g/m*3 18.94 C 6.98333 km/h
355 16-07-2021 18:00:00 18.85 C 13.43 g/m*3 18.85 C 6.41667 km/h
356 16-07-2021 19:00:00 18.66667 C 13.33 g/m*3 18.67 C 7.10833 km/h
357 16-07-2021 20:00:00 18.4 C 13.38 g/m*3 18.4 C 2.93333 km/h
358 16-07-2021 21:00:00 18.175 C 13.24 g/m*3 18.18 C 3.48333 km/h
359 16-07-2021 22:00:00 18.04167 C 13.23 g/m*3 18.04 C 1.33333 km/h
360 16-07-2021 23:00:00 17.8 C 13.32 g/m*3 17.8 C 1.46667 km/h
361 17-07-2021 00:00:00 17.6 C 13.49 g/m*3 17.6 C 0.4 km/h
362 17-07-2021 01:00:00 17.3 C 13.48 g/m*3 17.3 C 0 km/h
363 17-07-2021 02:00:00 17.05833 C 13.43 g/m*3 17.06 C 0 km/h
364 17-07-2021 03:00:00 16.85833 C 13.34 g/m*3 16.86 C 0.26667 km/h
365 17-07-2021 04:00:00 16.8 C 13.3 g/m*3 16.8 C 0.26667 km/h
366 17-07-2021 05:00:00 16.75 C 13.22 g/m*3 16.75 C 2.53333 km/h
367 17-07-2021 06:00:00 17.15 C 13.27 g/m*3 17.15 C 1.73333 km/h
368 17-07-2021 07:00:00 17.29167 C 13.4 g/m*3 17.29 C 1.06667 km/h
369 17-07-2021 08:00:00 17.525 C 13.49 g/m*3 17.52 C 2.53333 km/h
370 17-07-2021 09:00:00 17.78333 C 13.66 g/m*3 17.78 C 5.08333 km/h
371 17-07-2021 10:00:00 18.34167 C 13.71 g/m*3 18.34 C 8.2 km/h
372 17-07-2021 11:00:00 20.05 C 13.95 g/m*3 20.05 C 9 km/h
373 17-07-2021 12:00:00 20.59167 C 14.28 g/m*3 20.59 C 13.96667 km/h
374 17-07-2021 13:00:00 20.55 C 14.45 g/m*3 20.55 C 10.21667 km/h
375 17-07-2021 14:00:00 20.35833 C 14.5 g/m*3 20.36 C 10.75833 km/h
Sensor: Nr:Datum:Temp:Abs-Feuchte:Windchill:Wind:
Aussen-T/F 376 17-07-2021 15:00:00 20.83333 C 14.88 g/m*3 20.83 C 9.69167 km/h
377 17-07-2021 16:00:00 22.225 C 15.81 g/m*3 22.23 C 8.60833 km/h
378 17-07-2021 17:00:00 24.625 C 16.85 g/m*3 24.63 C 9.28333 km/h
379 17-07-2021 18:00:00 26.43333 C 16.75 g/m*3 26.43 C 10.9 km/h
380 17-07-2021 19:00:00 26.05 C 15.28 g/m*3 26.05 C 11.3 km/h
381 17-07-2021 20:00:00 25.14167 C 15.16 g/m*3 25.14 C 4.40833 km/h
382 17-07-2021 21:00:00 22.01667 C 15.35 g/m*3 22.02 C 1.86667 km/h
383 17-07-2021 22:00:00 19.48333 C 14.45 g/m*3 19.48 C 2.66667 km/h
384 17-07-2021 23:00:00 18.46667 C 13.94 g/m*3 18.47 C 1.6 km/h
385 18-07-2021 00:00:00 17.68333 C 13.41 g/m*3 17.68 C 2.53333 km/h
386 18-07-2021 01:00:00 17.075 C 13.02 g/m*3 17.08 C 2.13333 km/h
387 18-07-2021 02:00:00 16.43333 C 12.65 g/m*3 16.43 C 2.275 km/h
388 18-07-2021 03:00:00 15.65 C 12.27 g/m*3 15.65 C 2.66667 km/h
389 18-07-2021 04:00:00 15.26667 C 12.15 g/m*3 15.27 C 4.80833 km/h
390 18-07-2021 05:00:00 15.15833 C 12.2 g/m*3 15.16 C 4.53333 km/h
391 18-07-2021 06:00:00 15.48333 C 12.54 g/m*3 15.48 C 4.41667 km/h
392 18-07-2021 07:00:00 15.975 C 12.94 g/m*3 15.98 C 2.66667 km/h
393 18-07-2021 08:00:00 16.95 C 13.52 g/m*3 16.95 C 1.475 km/h
394 18-07-2021 09:00:00 18.14167 C 13.7 g/m*3 18.14 C 4.01667 km/h
395 18-07-2021 10:00:00 19.68333 C 13.95 g/m*3 19.68 C 5.49167 km/h
396 18-07-2021 11:00:00 21.24167 C 14.32 g/m*3 21.24 C 8.48333 km/h
397 18-07-2021 12:00:00 22.75833 C 14.63 g/m*3 22.76 C 10.225 km/h
398 18-07-2021 13:00:00 23.60833 C 14.58 g/m*3 23.61 C 12.23333 km/h
399 18-07-2021 14:00:00 24.53333 C 14.63 g/m*3 24.53 C 13.56667 km/h
400 18-07-2021 15:00:00 25.99167 C 14.84 g/m*3 25.99 C 13.16667 km/h
Sensor: Nr:Datum:Temp:Abs-Feuchte:Windchill:Wind:
Aussen-T/F 401 18-07-2021 16:00:00 27.46667 C 15.21 g/m*3 27.47 C 12.5 km/h
402 18-07-2021 17:00:00 27.85833 C 14.98 g/m*3 27.86 C 13.43333 km/h
403 18-07-2021 18:00:00 28.025 C 14.68 g/m*3 28.03 C 12.1 km/h
404 18-07-2021 19:00:00 27.09167 C 14.94 g/m*3 27.09 C 10.625 km/h
405 18-07-2021 20:00:00 25.75833 C 15.03 g/m*3 25.76 C 6.425 km/h
406 18-07-2021 21:00:00 22.48333 C 15.48 g/m*3 22.48 C 2.4 km/h
407 18-07-2021 22:00:00 20.23333 C 14.83 g/m*3 20.23 C 5.73333 km/h
408 18-07-2021 23:00:00 19.19167 C 14.43 g/m*3 19.19 C 2.66667 km/h
409 19-07-2021 00:00:00 17.96667 C 13.87 g/m*3 17.97 C 0.13333 km/h
410 19-07-2021 01:00:00 17.2 C 13.53 g/m*3 17.2 C 0.93333 km/h
411 19-07-2021 02:00:00 16.54167 C 13.09 g/m*3 16.54 C 2.66667 km/h
412 19-07-2021 03:00:00 15.78333 C 12.51 g/m*3 15.78 C 0.26667 km/h
413 19-07-2021 04:00:00 14.975 C 12.04 g/m*3 14.98 C 0 km/h
414 19-07-2021 05:00:00 14.675 C 11.91 g/m*3 14.68 C 0.13333 km/h
415 19-07-2021 06:00:00 14.64167 C 11.92 g/m*3 14.64 C 0 km/h
416 19-07-2021 07:00:00 14.88333 C 12.22 g/m*3 14.88 C 0.13333 km/h
417 19-07-2021 08:00:00 16.03333 C 13.2 g/m*3 16.03 C 0.53333 km/h
418 19-07-2021 09:00:00 17.875 C 13.9 g/m*3 17.88 C 3.6 km/h
419 19-07-2021 10:00:00 20.20833 C 13.72 g/m*3 20.21 C 9.96667 km/h
420 19-07-2021 11:00:00 20.83333 C 13.38 g/m*3 20.83 C 8.475 km/h
421 19-07-2021 12:00:00 21.50833 C 13.46 g/m*3 21.51 C 10.35833 km/h
422 19-07-2021 13:00:00 22.13333 C 13.45 g/m*3 22.13 C 8.33333 km/h
423 19-07-2021 14:00:00 22.68333 C 13.56 g/m*3 22.68 C 12.1 km/h
424 19-07-2021 15:00:00 23.39167 C 13.61 g/m*3 23.39 C 13.56667 km/h
425 19-07-2021 16:00:00 24.34167 C 13.35 g/m*3 24.34 C 12.35833 km/h
Sensor: Nr:Datum:Temp:Abs-Feuchte:Windchill:Wind:
Aussen-T/F 426 19-07-2021 17:00:00 23.43333 C 13.2 g/m*3 23.43 C 13.43333 km/h
427 19-07-2021 18:00:00 22.86667 C 12.95 g/m*3 22.87 C 13.96667 km/h
428 19-07-2021 19:00:00 21.575 C 12.5 g/m*3 21.58 C 10.35833 km/h
429 19-07-2021 20:00:00 20.75 C 12.14 g/m*3 20.75 C 3.475 km/h
430 19-07-2021 21:00:00 18.64167 C 12.41 g/m*3 18.64 C 0.66667 km/h
431 19-07-2021 22:00:00 16.425 C 12 g/m*3 16.43 C 2.66667 km/h
432 19-07-2021 23:00:00 15.38333 C 11.7 g/m*3 15.38 C 0.4 km/h
433 20-07-2021 00:00:00 14.31667 C 11.25 g/m*3 14.32 C 0 km/h
434 20-07-2021 01:00:00 13.6 C 10.97 g/m*3 13.6 C 0 km/h
435 20-07-2021 02:00:00 13.15 C 10.77 g/m*3 13.15 C 0 km/h
436 20-07-2021 03:00:00 12.675 C 10.55 g/m*3 12.68 C 0 km/h
437 20-07-2021 04:00:00 12.25 C 10.28 g/m*3 12.25 C 0 km/h
438 20-07-2021 05:00:00 11.83333 C 10.03 g/m*3 11.83 C 0 km/h
439 20-07-2021 06:00:00 11.775 C 10.09 g/m*3 11.78 C 0.26667 km/h
440 20-07-2021 07:00:00 12.31667 C 10.47 g/m*3 12.32 C 1.46667 km/h
441 20-07-2021 08:00:00 13 C 11 g/m*3 13 C 0.93333 km/h
442 20-07-2021 09:00:00 14.08333 C 11.72 g/m*3 14.08 C 1.2 km/h
443 20-07-2021 10:00:00 16.04167 C 12.65 g/m*3 16.04 C 2.66667 km/h
444 20-07-2021 11:00:00 18.61667 C 12.05 g/m*3 18.62 C 4.81667 km/h
445 20-07-2021 12:00:00 20.05 C 11.9 g/m*3 20.05 C 7.65 km/h
446 20-07-2021 13:00:00 20.66667 C 11.87 g/m*3 20.67 C 4.68333 km/h
447 20-07-2021 14:00:00 21.75833 C 11.6 g/m*3 21.76 C 7.79167 km/h
448 20-07-2021 15:00:00 23.125 C 11.92 g/m*3 23.13 C 8.85833 km/h
449 20-07-2021 16:00:00 25.39167 C 11.96 g/m*3 25.39 C 8.075 km/h
450 20-07-2021 17:00:00 25.84167 C 11.8 g/m*3 25.84 C 8.49167 km/h
Sensor: Nr:Datum:Temp:Abs-Feuchte:Windchill:Wind:
Aussen-T/F 451 20-07-2021 18:00:00 25.58333 C 11.52 g/m*3 25.58 C 9.15 km/h
452 20-07-2021 19:00:00 24.29167 C 11.48 g/m*3 24.29 C 6.825 km/h
453 20-07-2021 20:00:00 22.95833 C 11.96 g/m*3 22.96 C 3.475 km/h
454 20-07-2021 21:00:00 19.24167 C 12.42 g/m*3 19.24 C 4.3 km/h
455 20-07-2021 22:00:00 17.14167 C 11.76 g/m*3 17.14 C 6.69167 km/h
456 20-07-2021 23:00:00 16.075 C 11.51 g/m*3 16.08 C 1.2 km/h
457 21-07-2021 00:00:00 14.95833 C 11.16 g/m*3 14.96 C 0 km/h
458 21-07-2021 01:00:00 13.725 C 10.64 g/m*3 13.73 C 0.13333 km/h
459 21-07-2021 02:00:00 12.94167 C 10.25 g/m*3 12.94 C 0.26667 km/h
460 21-07-2021 03:00:00 12.35 C 9.99 g/m*3 12.35 C 0.26667 km/h
461 21-07-2021 04:00:00 11.73333 C 9.75 g/m*3 11.73 C 0 km/h
462 21-07-2021 05:00:00 11.2 C 9.52 g/m*3 11.2 C 0 km/h
463 21-07-2021 06:00:00 10.95833 C 9.44 g/m*3 10.96 C 0 km/h
464 21-07-2021 07:00:00 11.6 C 9.93 g/m*3 11.6 C 0 km/h
465 21-07-2021 08:00:00 12.60833 C 10.63 g/m*3 12.61 C 0 km/h
466 21-07-2021 09:00:00 13.80833 C 11.44 g/m*3 13.81 C 0.13333 km/h
467 21-07-2021 10:00:00 15.89167 C 12.28 g/m*3 15.89 C 2 km/h
468 21-07-2021 11:00:00 19.4 C 11.64 g/m*3 19.4 C 5.65 km/h
469 21-07-2021 12:00:00 21.08333 C 10.58 g/m*3 21.08 C 10.1 km/h
470 21-07-2021 13:00:00 21.875 C 10.85 g/m*3 21.88 C 6.05 km/h
471 21-07-2021 14:00:00 22.625 C 11 g/m*3 22.63 C 7.65833 km/h
472 21-07-2021 15:00:00 24.16667 C 11.02 g/m*3 24.17 C 5.625 km/h
473 21-07-2021 16:00:00 26.675 C 11.16 g/m*3 26.68 C 6.85 km/h
474 21-07-2021 17:00:00 27.16667 C 11.02 g/m*3 27.17 C 6.7 km/h
475 21-07-2021 18:00:00 27.55 C 11.3 g/m*3 27.55 C 4.68333 km/h
Sensor: Nr:Datum:Temp:Abs-Feuchte:Windchill:Wind:
Aussen-T/F 476 21-07-2021 19:00:00 25.78333 C 12.47 g/m*3 25.78 C 3.875 km/h
477 21-07-2021 20:00:00 22.13333 C 13.43 g/m*3 22.13 C 3.86667 km/h
478 21-07-2021 21:00:00 19.45 C 12.58 g/m*3 19.45 C 5.20833 km/h
479 21-07-2021 22:00:00 17.86667 C 12.05 g/m*3 17.87 C 4.8 km/h
480 21-07-2021 23:00:00 17.00833 C 11.9 g/m*3 17.01 C 1.475 km/h
481 22-07-2021 00:00:00 15.7 C 11.63 g/m*3 15.7 C 0 km/h
482 22-07-2021 01:00:00 14.55 C 11.22 g/m*3 14.55 C 0 km/h
483 22-07-2021 02:00:00 13.8 C 10.95 g/m*3 13.8 C 0 km/h
484 22-07-2021 03:00:00 13.21667 C 10.69 g/m*3 13.22 C 0 km/h
485 22-07-2021 04:00:00 12.76667 C 10.52 g/m*3 12.77 C 0 km/h
486 22-07-2021 05:00:00 12.83333 C 10.66 g/m*3 12.83 C 0 km/h
487 22-07-2021 06:00:00 13.10833 C 10.91 g/m*3 13.11 C 0 km/h
488 22-07-2021 07:00:00 13.80833 C 11.37 g/m*3 13.81 C 0.53333 km/h
489 22-07-2021 08:00:00 14.8 C 11.8 g/m*3 14.8 C 0.13333 km/h
490 22-07-2021 09:00:00 16.25 C 12.85 g/m*3 16.25 C 0 km/h
491 22-07-2021 10:00:00 17.73333 C 13.47 g/m*3 17.73 C 0 km/h
492 22-07-2021 11:00:00 19.9 C 13.62 g/m*3 19.9 C 0.26667 km/h
493 22-07-2021 12:00:00 21.84167 C 12.55 g/m*3 21.84 C 0.93333 km/h
494 22-07-2021 13:00:00 23.575 C 12.05 g/m*3 23.58 C 5.75 km/h
495 22-07-2021 14:00:00 24.30833 C 12.47 g/m*3 24.31 C 5.08333 km/h
496 22-07-2021 15:00:00 24.76667 C 13.22 g/m*3 24.77 C 3.075 km/h
497 22-07-2021 16:00:00 25.425 C 13.14 g/m*3 25.43 C 5.2 km/h
498 22-07-2021 17:00:00 25.65 C 14.3 g/m*3 25.65 C 3.61667 km/h
499 22-07-2021 18:00:00 26.13333 C 13.24 g/m*3 26.13 C 4.15 km/h
500 22-07-2021 19:00:00 25.89167 C 14.96 g/m*3 25.89 C 0 km/h
Sensor: Nr:Datum:Temp:Abs-Feuchte:Windchill:Wind:
Aussen-T/F 501 22-07-2021 20:00:00 22.425 C 14.09 g/m*3 22.43 C 4.81667 km/h
502 22-07-2021 21:00:00 19.58333 C 12.97 g/m*3 19.58 C 4.14167 km/h
503 22-07-2021 22:00:00 17.35833 C 12.45 g/m*3 17.36 C 0 km/h
504 22-07-2021 23:00:00 16.58333 C 12.35 g/m*3 16.58 C 0 km/h

Maximal/Minimal-Werte vom 02.07.2021 - 22.07.2021

Sensor Min Max Avg
Temp
(Aussen-T/F)
10.8 °C
21-07-2021  06:10:00
28.2 °C
18-07-2021  18:05:00
18.35 °C
Abs-Feuchte
(Aussen-T/F)
9.44 g/m*3
21-07-2021  06:00:00
17.43 g/m*3
03-07-2021  17:00:00
13.41 g/m*3
Windchill
(Aussen-T/F)
10.96 C
21-07-2021  06:00:00
28.03 C
18-07-2021  18:00:00
18.31 C

Die Daten stammen von einer Davis Vantage Pro 2 Wetter-Station und werden unter Linux mit der Software wview2wettercgi und aufbereitet. Alle Angaben erfolgen ohne Gewähr für ihre Vollständigkeit oder Richtigkeit.
Kontakt: Rainer Krienke krienke@uni-koblenz.de . Meine Webseiten an der Uni Koblenz oder privat.
Version: $Revision: 0.78 $